sensor_id;sensor_type;location;lat;lon;timestamp;temperature;humidity
35962;DHT22;22044;48.298;10.008;2023-07-30T00:01:27;17.10;99.90
35962;DHT22;22044;48.298;10.008;2023-07-30T00:04:13;17.20;99.90
35962;DHT22;22044;48.298;10.008;2023-07-30T00:06:58;17.20;99.90
35962;DHT22;22044;48.298;10.008;2023-07-30T00:09:45;17.20;99.90
35962;DHT22;22044;48.298;10.008;2023-07-30T00:12:31;17.20;99.90
35962;DHT22;22044;48.298;10.008;2023-07-30T00:15:16;17.10;99.90
35962;DHT22;22044;48.298;10.008;2023-07-30T00:18:02;17.10;99.90
35962;DHT22;22044;48.298;10.008;2023-07-30T00:20:48;17.10;99.90
35962;DHT22;22044;48.298;10.008;2023-07-30T00:23:33;17.20;99.90
35962;DHT22;22044;48.298;10.008;2023-07-30T00:26:21;17.30;99.90
35962;DHT22;22044;48.298;10.008;2023-07-30T00:29:08;17.30;99.90
35962;DHT22;22044;48.298;10.008;2023-07-30T00:31:55;17.30;99.90
35962;DHT22;22044;48.298;10.008;2023-07-30T00:34:41;17.20;99.90
35962;DHT22;22044;48.298;10.008;2023-07-30T00:37:27;17.00;99.90
35962;DHT22;22044;48.298;10.008;2023-07-30T00:40:13;17.00;99.90
35962;DHT22;22044;48.298;10.008;2023-07-30T00:43:00;16.90;99.90
35962;DHT22;22044;48.298;10.008;2023-07-30T00:45:45;16.90;99.90
35962;DHT22;22044;48.298;10.008;2023-07-30T00:48:33;16.90;99.90
35962;DHT22;22044;48.298;10.008;2023-07-30T00:51:20;16.90;99.90
35962;DHT22;22044;48.298;10.008;2023-07-30T00:54:06;16.80;99.90
35962;DHT22;22044;48.298;10.008;2023-07-30T00:56:53;16.70;99.90
35962;DHT22;22044;48.298;10.008;2023-07-30T00:59:40;16.60;99.90
35962;DHT22;22044;48.298;10.008;2023-07-30T01:02:26;16.60;99.90
35962;DHT22;22044;48.298;10.008;2023-07-30T01:05:12;16.60;99.90
35962;DHT22;22044;48.298;10.008;2023-07-30T01:07:58;16.60;99.90
35962;DHT22;22044;48.298;10.008;2023-07-30T01:10:44;16.60;99.90
35962;DHT22;22044;48.298;10.008;2023-07-30T01:13:30;16.60;99.90
35962;DHT22;22044;48.298;10.008;2023-07-30T01:16:21;16.60;99.90
35962;DHT22;22044;48.298;10.008;2023-07-30T01:19:07;16.60;99.90
35962;DHT22;22044;48.298;10.008;2023-07-30T01:21:54;16.70;99.90
35962;DHT22;22044;48.298;10.008;2023-07-30T01:24:40;16.70;99.90
35962;DHT22;22044;48.298;10.008;2023-07-30T01:27:28;16.70;99.90
35962;DHT22;22044;48.298;10.008;2023-07-30T01:30:18;16.80;99.90
35962;DHT22;22044;48.298;10.008;2023-07-30T01:33:08;16.80;99.90
35962;DHT22;22044;48.298;10.008;2023-07-30T01:35:56;16.70;99.90
35962;DHT22;22044;48.298;10.008;2023-07-30T01:38:44;16.80;99.90
35962;DHT22;22044;48.298;10.008;2023-07-30T01:41:32;16.80;99.90
35962;DHT22;22044;48.298;10.008;2023-07-30T01:44:17;16.90;99.90
35962;DHT22;22044;48.298;10.008;2023-07-30T01:47:03;16.90;99.90
35962;DHT22;22044;48.298;10.008;2023-07-30T01:49:48;16.90;99.90
35962;DHT22;22044;48.298;10.008;2023-07-30T01:52:34;16.90;99.90
35962;DHT22;22044;48.298;10.008;2023-07-30T01:55:21;16.90;99.90
35962;DHT22;22044;48.298;10.008;2023-07-30T01:58:08;16.70;99.90
35962;DHT22;22044;48.298;10.008;2023-07-30T02:00:53;16.70;99.90
35962;DHT22;22044;48.298;10.008;2023-07-30T02:03:39;16.80;99.90
35962;DHT22;22044;48.298;10.008;2023-07-30T02:06:25;16.80;99.90
35962;DHT22;22044;48.298;10.008;2023-07-30T02:09:11;16.90;99.90
35962;DHT22;22044;48.298;10.008;2023-07-30T02:12:00;16.90;99.90
35962;DHT22;22044;48.298;10.008;2023-07-30T02:14:46;16.90;99.90
35962;DHT22;22044;48.298;10.008;2023-07-30T02:17:31;17.00;99.90
35962;DHT22;22044;48.298;10.008;2023-07-30T02:20:17;17.00;99.90
35962;DHT22;22044;48.298;10.008;2023-07-30T02:23:04;17.00;99.90
35962;DHT22;22044;48.298;10.008;2023-07-30T02:25:49;17.00;99.90
35962;DHT22;22044;48.298;10.008;2023-07-30T02:28:36;17.00;99.90
35962;DHT22;22044;48.298;10.008;2023-07-30T02:31:21;17.00;99.90
35962;DHT22;22044;48.298;10.008;2023-07-30T02:34:07;16.80;99.90
35962;DHT22;22044;48.298;10.008;2023-07-30T02:36:53;16.60;99.90
35962;DHT22;22044;48.298;10.008;2023-07-30T02:39:38;16.50;99.90
35962;DHT22;22044;48.298;10.008;2023-07-30T02:42:25;16.40;99.90
35962;DHT22;22044;48.298;10.008;2023-07-30T02:45:12;16.40;99.90
35962;DHT22;22044;48.298;10.008;2023-07-30T02:47:57;16.50;99.90
35962;DHT22;22044;48.298;10.008;2023-07-30T02:50:43;16.50;99.90
35962;DHT22;22044;48.298;10.008;2023-07-30T02:53:28;16.50;99.90
35962;DHT22;22044;48.298;10.008;2023-07-30T02:56:14;16.60;99.90
35962;DHT22;22044;48.298;10.008;2023-07-30T02:59:00;16.60;99.90
35962;DHT22;22044;48.298;10.008;2023-07-30T03:01:47;16.60;99.90
35962;DHT22;22044;48.298;10.008;2023-07-30T03:04:33;16.50;99.90
35962;DHT22;22044;48.298;10.008;2023-07-30T03:07:19;16.40;99.90
35962;DHT22;22044;48.298;10.008;2023-07-30T03:10:06;16.40;99.90
35962;DHT22;22044;48.298;10.008;2023-07-30T03:12:51;16.30;99.90
35962;DHT22;22044;48.298;10.008;2023-07-30T03:15:36;16.30;99.90
35962;DHT22;22044;48.298;10.008;2023-07-30T03:18:23;16.30;99.90
35962;DHT22;22044;48.298;10.008;2023-07-30T03:21:09;16.40;99.90
35962;DHT22;22044;48.298;10.008;2023-07-30T03:23:57;16.30;99.90
35962;DHT22;22044;48.298;10.008;2023-07-30T03:26:43;16.40;99.90
35962;DHT22;22044;48.298;10.008;2023-07-30T03:29:28;16.40;99.90
35962;DHT22;22044;48.298;10.008;2023-07-30T03:32:14;16.40;99.90
35962;DHT22;22044;48.298;10.008;2023-07-30T03:35:01;16.50;99.90
35962;DHT22;22044;48.298;10.008;2023-07-30T03:37:46;16.50;99.90
35962;DHT22;22044;48.298;10.008;2023-07-30T03:40:32;16.50;99.90
35962;DHT22;22044;48.298;10.008;2023-07-30T03:43:18;16.40;99.90
35962;DHT22;22044;48.298;10.008;2023-07-30T03:46:04;16.30;99.90
35962;DHT22;22044;48.298;10.008;2023-07-30T03:48:49;16.10;99.90
35962;DHT22;22044;48.298;10.008;2023-07-30T03:51:36;16.10;99.90
35962;DHT22;22044;48.298;10.008;2023-07-30T03:54:23;16.20;99.90
35962;DHT22;22044;48.298;10.008;2023-07-30T03:57:11;16.30;99.90
35962;DHT22;22044;48.298;10.008;2023-07-30T03:59:56;16.10;99.90
35962;DHT22;22044;48.298;10.008;2023-07-30T04:02:42;16.20;99.90
35962;DHT22;22044;48.298;10.008;2023-07-30T04:05:27;16.30;99.90
35962;DHT22;22044;48.298;10.008;2023-07-30T04:08:16;16.20;99.90
35962;DHT22;22044;48.298;10.008;2023-07-30T04:11:01;16.20;99.90
35962;DHT22;22044;48.298;10.008;2023-07-30T04:13:47;16.30;99.90
35962;DHT22;22044;48.298;10.008;2023-07-30T04:16:33;16.30;99.90
35962;DHT22;22044;48.298;10.008;2023-07-30T04:19:19;16.30;99.90
35962;DHT22;22044;48.298;10.008;2023-07-30T04:22:05;16.30;99.90
35962;DHT22;22044;48.298;10.008;2023-07-30T04:24:52;16.30;99.90
35962;DHT22;22044;48.298;10.008;2023-07-30T04:27:38;16.20;99.90
35962;DHT22;22044;48.298;10.008;2023-07-30T04:30:24;16.20;99.90
35962;DHT22;22044;48.298;10.008;2023-07-30T04:33:09;16.20;99.90
35962;DHT22;22044;48.298;10.008;2023-07-30T04:35:57;16.30;99.90
35962;DHT22;22044;48.298;10.008;2023-07-30T04:38:43;16.40;99.90
35962;DHT22;22044;48.298;10.008;2023-07-30T04:41:30;16.40;99.90
35962;DHT22;22044;48.298;10.008;2023-07-30T04:44:16;16.40;99.90
35962;DHT22;22044;48.298;10.008;2023-07-30T04:47:02;16.50;99.90
35962;DHT22;22044;48.298;10.008;2023-07-30T04:49:48;16.50;99.90
35962;DHT22;22044;48.298;10.008;2023-07-30T04:52:37;16.60;99.90
35962;DHT22;22044;48.298;10.008;2023-07-30T04:55:23;16.60;99.90
35962;DHT22;22044;48.298;10.008;2023-07-30T04:58:10;16.50;99.90
35962;DHT22;22044;48.298;10.008;2023-07-30T05:00:55;16.50;99.90
35962;DHT22;22044;48.298;10.008;2023-07-30T05:03:41;16.50;99.90
35962;DHT22;22044;48.298;10.008;2023-07-30T05:06:26;16.50;99.90
35962;DHT22;22044;48.298;10.008;2023-07-30T05:09:12;16.50;99.90
35962;DHT22;22044;48.298;10.008;2023-07-30T05:11:58;16.60;99.90
35962;DHT22;22044;48.298;10.008;2023-07-30T05:14:45;16.60;99.90
35962;DHT22;22044;48.298;10.008;2023-07-30T05:17:30;16.60;99.90
35962;DHT22;22044;48.298;10.008;2023-07-30T05:20:16;16.70;99.90
35962;DHT22;22044;48.298;10.008;2023-07-30T05:23:01;16.70;99.90
35962;DHT22;22044;48.298;10.008;2023-07-30T05:25:47;16.70;99.90
35962;DHT22;22044;48.298;10.008;2023-07-30T05:28:33;16.80;99.90
35962;DHT22;22044;48.298;10.008;2023-07-30T05:31:20;16.80;99.90
35962;DHT22;22044;48.298;10.008;2023-07-30T05:34:05;16.80;99.90
35962;DHT22;22044;48.298;10.008;2023-07-30T05:36:51;16.80;99.90
35962;DHT22;22044;48.298;10.008;2023-07-30T05:39:37;16.90;99.90
35962;DHT22;22044;48.298;10.008;2023-07-30T05:42:23;17.00;99.90
35962;DHT22;22044;48.298;10.008;2023-07-30T05:45:10;17.00;99.90
35962;DHT22;22044;48.298;10.008;2023-07-30T05:47:57;17.10;99.90
35962;DHT22;22044;48.298;10.008;2023-07-30T05:50:42;17.20;99.90
35962;DHT22;22044;48.298;10.008;2023-07-30T05:53:28;17.20;99.90
35962;DHT22;22044;48.298;10.008;2023-07-30T05:56:13;17.20;99.90
35962;DHT22;22044;48.298;10.008;2023-07-30T05:59:02;17.20;99.90
35962;DHT22;22044;48.298;10.008;2023-07-30T06:01:48;17.20;99.90
35962;DHT22;22044;48.298;10.008;2023-07-30T06:04:35;17.20;99.90
35962;DHT22;22044;48.298;10.008;2023-07-30T06:07:20;17.40;99.90
35962;DHT22;22044;48.298;10.008;2023-07-30T06:10:06;17.40;99.90
35962;DHT22;22044;48.298;10.008;2023-07-30T06:12:52;17.50;99.90
35962;DHT22;22044;48.298;10.008;2023-07-30T06:15:38;17.50;99.90
35962;DHT22;22044;48.298;10.008;2023-07-30T06:18:23;17.60;99.90
35962;DHT22;22044;48.298;10.008;2023-07-30T06:21:10;17.60;99.90
35962;DHT22;22044;48.298;10.008;2023-07-30T06:23:56;17.70;99.90
35962;DHT22;22044;48.298;10.008;2023-07-30T06:26:42;17.80;99.90
35962;DHT22;22044;48.298;10.008;2023-07-30T06:29:27;17.90;99.90
35962;DHT22;22044;48.298;10.008;2023-07-30T06:32:13;17.90;99.90
35962;DHT22;22044;48.298;10.008;2023-07-30T06:34:58;18.10;99.90
35962;DHT22;22044;48.298;10.008;2023-07-30T06:37:45;18.10;99.90
35962;DHT22;22044;48.298;10.008;2023-07-30T06:40:31;18.20;99.90
35962;DHT22;22044;48.298;10.008;2023-07-30T06:43:16;18.30;99.90
35962;DHT22;22044;48.298;10.008;2023-07-30T06:46:02;18.40;99.90
35962;DHT22;22044;48.298;10.008;2023-07-30T06:48:47;18.40;99.90
35962;DHT22;22044;48.298;10.008;2023-07-30T06:51:33;18.50;99.90
35962;DHT22;22044;48.298;10.008;2023-07-30T06:54:20;18.60;99.90
35962;DHT22;22044;48.298;10.008;2023-07-30T06:57:06;18.60;99.90
35962;DHT22;22044;48.298;10.008;2023-07-30T06:59:53;18.70;99.90
35962;DHT22;22044;48.298;10.008;2023-07-30T07:02:38;18.70;99.90
35962;DHT22;22044;48.298;10.008;2023-07-30T07:05:24;18.90;99.90
35962;DHT22;22044;48.298;10.008;2023-07-30T07:08:10;19.00;99.90
35962;DHT22;22044;48.298;10.008;2023-07-30T07:10:57;19.10;99.90
35962;DHT22;22044;48.298;10.008;2023-07-30T07:13:43;19.20;99.90
35962;DHT22;22044;48.298;10.008;2023-07-30T07:16:29;19.20;99.90
35962;DHT22;22044;48.298;10.008;2023-07-30T07:19:14;19.30;99.90
35962;DHT22;22044;48.298;10.008;2023-07-30T07:22:00;19.50;99.90
35962;DHT22;22044;48.298;10.008;2023-07-30T07:24:46;19.50;99.90
35962;DHT22;22044;48.298;10.008;2023-07-30T07:27:32;19.60;99.90
35962;DHT22;22044;48.298;10.008;2023-07-30T07:30:18;19.60;99.90
35962;DHT22;22044;48.298;10.008;2023-07-30T07:33:04;19.60;99.90
35962;DHT22;22044;48.298;10.008;2023-07-30T07:35:50;19.70;99.90
35962;DHT22;22044;48.298;10.008;2023-07-30T07:38:36;19.90;99.90
35962;DHT22;22044;48.298;10.008;2023-07-30T07:41:21;20.00;99.90
35962;DHT22;22044;48.298;10.008;2023-07-30T07:44:08;20.10;99.90
35962;DHT22;22044;48.298;10.008;2023-07-30T07:46:55;20.10;99.90
35962;DHT22;22044;48.298;10.008;2023-07-30T07:49:41;20.10;99.90
35962;DHT22;22044;48.298;10.008;2023-07-30T07:52:26;20.10;99.90
35962;DHT22;22044;48.298;10.008;2023-07-30T07:55:12;20.10;99.90
35962;DHT22;22044;48.298;10.008;2023-07-30T07:57:57;20.20;99.90
35962;DHT22;22044;48.298;10.008;2023-07-30T08:00:44;20.30;99.90
35962;DHT22;22044;48.298;10.008;2023-07-30T08:03:30;20.20;99.90
35962;DHT22;22044;48.298;10.008;2023-07-30T08:06:16;20.20;99.90
35962;DHT22;22044;48.298;10.008;2023-07-30T08:09:02;20.40;99.90
35962;DHT22;22044;48.298;10.008;2023-07-30T08:11:49;20.40;99.90
35962;DHT22;22044;48.298;10.008;2023-07-30T08:14:35;20.30;99.90
35962;DHT22;22044;48.298;10.008;2023-07-30T08:17:24;20.40;99.90
35962;DHT22;22044;48.298;10.008;2023-07-30T08:20:11;20.50;99.90
35962;DHT22;22044;48.298;10.008;2023-07-30T08:23:00;20.60;99.90
35962;DHT22;22044;48.298;10.008;2023-07-30T08:25:45;20.60;99.90
35962;DHT22;22044;48.298;10.008;2023-07-30T08:28:33;20.70;99.90
35962;DHT22;22044;48.298;10.008;2023-07-30T08:31:19;20.80;99.90
35962;DHT22;22044;48.298;10.008;2023-07-30T08:34:08;20.80;99.90
35962;DHT22;22044;48.298;10.008;2023-07-30T08:36:54;20.90;99.90
35962;DHT22;22044;48.298;10.008;2023-07-30T08:39:40;21.00;99.90
35962;DHT22;22044;48.298;10.008;2023-07-30T08:42:27;21.10;99.90
35962;DHT22;22044;48.298;10.008;2023-07-30T08:45:13;21.30;99.90
35962;DHT22;22044;48.298;10.008;2023-07-30T08:48:00;21.50;99.90
35962;DHT22;22044;48.298;10.008;2023-07-30T08:50:49;21.60;99.90
35962;DHT22;22044;48.298;10.008;2023-07-30T08:53:36;21.70;99.90
35962;DHT22;22044;48.298;10.008;2023-07-30T08:56:22;21.70;99.90
35962;DHT22;22044;48.298;10.008;2023-07-30T08:59:08;21.80;99.90
35962;DHT22;22044;48.298;10.008;2023-07-30T09:01:54;21.90;99.90
35962;DHT22;22044;48.298;10.008;2023-07-30T09:04:45;22.00;99.90
35962;DHT22;22044;48.298;10.008;2023-07-30T09:07:38;22.00;99.90
35962;DHT22;22044;48.298;10.008;2023-07-30T09:10:26;22.00;99.90
35962;DHT22;22044;48.298;10.008;2023-07-30T09:13:20;21.80;99.90
35962;DHT22;22044;48.298;10.008;2023-07-30T09:16:12;21.90;99.90
35962;DHT22;22044;48.298;10.008;2023-07-30T09:19:01;21.90;99.90
35962;DHT22;22044;48.298;10.008;2023-07-30T09:21:48;21.90;99.90
35962;DHT22;22044;48.298;10.008;2023-07-30T09:24:43;22.00;99.90
35962;DHT22;22044;48.298;10.008;2023-07-30T09:27:34;22.00;99.90
35962;DHT22;22044;48.298;10.008;2023-07-30T09:30:27;21.80;99.90
35962;DHT22;22044;48.298;10.008;2023-07-30T09:33:18;21.80;99.90
35962;DHT22;22044;48.298;10.008;2023-07-30T09:36:12;21.90;99.90
35962;DHT22;22044;48.298;10.008;2023-07-30T09:39:03;22.10;99.90
35962;DHT22;22044;48.298;10.008;2023-07-30T09:41:52;22.10;99.90
35962;DHT22;22044;48.298;10.008;2023-07-30T09:44:39;22.10;99.90
35962;DHT22;22044;48.298;10.008;2023-07-30T09:47:26;22.10;99.90
35962;DHT22;22044;48.298;10.008;2023-07-30T09:50:12;21.90;99.90
35962;DHT22;22044;48.298;10.008;2023-07-30T09:53:10;21.90;99.90
35962;DHT22;22044;48.298;10.008;2023-07-30T09:55:58;21.80;99.90
35962;DHT22;22044;48.298;10.008;2023-07-30T09:58:48;22.00;99.90
35962;DHT22;22044;48.298;10.008;2023-07-30T10:01:37;22.30;99.90
35962;DHT22;22044;48.298;10.008;2023-07-30T10:04:25;22.40;99.90
35962;DHT22;22044;48.298;10.008;2023-07-30T10:07:16;22.50;99.90
35962;DHT22;22044;48.298;10.008;2023-07-30T10:10:15;22.70;99.90
35962;DHT22;22044;48.298;10.008;2023-07-30T10:13:06;22.80;99.90
35962;DHT22;22044;48.298;10.008;2023-07-30T10:15:55;22.90;99.90
35962;DHT22;22044;48.298;10.008;2023-07-30T10:18:43;22.80;99.90
35962;DHT22;22044;48.298;10.008;2023-07-30T10:21:31;22.70;99.90
35962;DHT22;22044;48.298;10.008;2023-07-30T10:24:18;22.70;99.90
35962;DHT22;22044;48.298;10.008;2023-07-30T10:27:06;22.80;99.90
35962;DHT22;22044;48.298;10.008;2023-07-30T10:30:11;22.70;99.90
35962;DHT22;22044;48.298;10.008;2023-07-30T10:33:02;22.60;99.90
35962;DHT22;22044;48.298;10.008;2023-07-30T10:35:54;22.70;99.90
35962;DHT22;22044;48.298;10.008;2023-07-30T10:38:40;22.60;99.90
35962;DHT22;22044;48.298;10.008;2023-07-30T10:41:27;22.70;99.90
35962;DHT22;22044;48.298;10.008;2023-07-30T10:44:22;22.80;99.90
35962;DHT22;22044;48.298;10.008;2023-07-30T10:47:16;23.10;99.90
35962;DHT22;22044;48.298;10.008;2023-07-30T10:50:04;23.20;99.90
35962;DHT22;22044;48.298;10.008;2023-07-30T10:52:51;23.40;99.90
35962;DHT22;22044;48.298;10.008;2023-07-30T10:55:37;23.40;99.90
35962;DHT22;22044;48.298;10.008;2023-07-30T10:58:24;23.40;99.90
35962;DHT22;22044;48.298;10.008;2023-07-30T11:01:13;23.60;99.90
35962;DHT22;22044;48.298;10.008;2023-07-30T11:03:58;23.60;99.90
35962;DHT22;22044;48.298;10.008;2023-07-30T11:06:47;23.70;99.90
35962;DHT22;22044;48.298;10.008;2023-07-30T11:09:33;23.90;99.90
35962;DHT22;22044;48.298;10.008;2023-07-30T11:12:19;23.50;99.90
35962;DHT22;22044;48.298;10.008;2023-07-30T11:15:07;22.80;99.90
35962;DHT22;22044;48.298;10.008;2023-07-30T11:17:53;22.70;99.90
35962;DHT22;22044;48.298;10.008;2023-07-30T11:20:39;22.60;99.90
35962;DHT22;22044;48.298;10.008;2023-07-30T11:23:27;22.60;99.90
35962;DHT22;22044;48.298;10.008;2023-07-30T11:26:15;22.40;99.90
35962;DHT22;22044;48.298;10.008;2023-07-30T11:29:14;22.20;99.90
35962;DHT22;22044;48.298;10.008;2023-07-30T11:32:00;22.30;99.90
35962;DHT22;22044;48.298;10.008;2023-07-30T11:34:47;22.60;99.90
35962;DHT22;22044;48.298;10.008;2023-07-30T11:37:33;22.10;99.90
35962;DHT22;22044;48.298;10.008;2023-07-30T11:40:21;21.70;99.90
35962;DHT22;22044;48.298;10.008;2023-07-30T11:43:07;21.30;99.90
35962;DHT22;22044;48.298;10.008;2023-07-30T11:46:10;21.20;99.90
35962;DHT22;22044;48.298;10.008;2023-07-30T11:49:11;21.20;99.90
35962;DHT22;22044;48.298;10.008;2023-07-30T11:52:04;21.40;99.90
35962;DHT22;22044;48.298;10.008;2023-07-30T11:54:59;21.50;99.90
35962;DHT22;22044;48.298;10.008;2023-07-30T11:57:47;21.30;99.90
35962;DHT22;22044;48.298;10.008;2023-07-30T12:00:33;21.30;99.90
35962;DHT22;22044;48.298;10.008;2023-07-30T12:03:18;21.50;99.90
35962;DHT22;22044;48.298;10.008;2023-07-30T12:06:05;21.60;99.90
35962;DHT22;22044;48.298;10.008;2023-07-30T12:08:51;21.70;99.90
35962;DHT22;22044;48.298;10.008;2023-07-30T12:11:44;21.70;99.90
35962;DHT22;22044;48.298;10.008;2023-07-30T12:14:44;21.60;99.90
35962;DHT22;22044;48.298;10.008;2023-07-30T12:17:29;21.80;99.90
35962;DHT22;22044;48.298;10.008;2023-07-30T12:20:17;22.00;99.90
35962;DHT22;22044;48.298;10.008;2023-07-30T12:23:02;22.00;99.90
35962;DHT22;22044;48.298;10.008;2023-07-30T12:25:48;22.10;99.90
35962;DHT22;22044;48.298;10.008;2023-07-30T12:28:33;22.10;99.90
35962;DHT22;22044;48.298;10.008;2023-07-30T12:31:20;22.30;99.90
35962;DHT22;22044;48.298;10.008;2023-07-30T12:34:06;22.50;99.90
35962;DHT22;22044;48.298;10.008;2023-07-30T12:36:52;22.70;99.90
35962;DHT22;22044;48.298;10.008;2023-07-30T12:39:38;22.90;99.90
35962;DHT22;22044;48.298;10.008;2023-07-30T12:42:23;22.90;99.90
35962;DHT22;22044;48.298;10.008;2023-07-30T12:45:09;23.00;99.90
35962;DHT22;22044;48.298;10.008;2023-07-30T12:47:56;23.10;99.90
35962;DHT22;22044;48.298;10.008;2023-07-30T12:50:42;23.10;99.90
35962;DHT22;22044;48.298;10.008;2023-07-30T12:53:27;23.10;99.90
35962;DHT22;22044;48.298;10.008;2023-07-30T12:56:13;23.20;99.90
35962;DHT22;22044;48.298;10.008;2023-07-30T12:58:59;23.40;99.90
35962;DHT22;22044;48.298;10.008;2023-07-30T13:01:44;23.40;99.90
35962;DHT22;22044;48.298;10.008;2023-07-30T13:04:32;23.40;99.90
35962;DHT22;22044;48.298;10.008;2023-07-30T13:07:17;23.50;99.90
35962;DHT22;22044;48.298;10.008;2023-07-30T13:10:05;23.30;99.90
35962;DHT22;22044;48.298;10.008;2023-07-30T13:12:51;23.40;99.90
35962;DHT22;22044;48.298;10.008;2023-07-30T13:15:37;23.50;99.90
35962;DHT22;22044;48.298;10.008;2023-07-30T13:18:22;23.40;99.90
35962;DHT22;22044;48.298;10.008;2023-07-30T13:21:10;23.30;99.90
35962;DHT22;22044;48.298;10.008;2023-07-30T13:23:56;23.30;99.90
35962;DHT22;22044;48.298;10.008;2023-07-30T13:26:42;23.20;99.90
35962;DHT22;22044;48.298;10.008;2023-07-30T13:29:27;23.40;99.90
35962;DHT22;22044;48.298;10.008;2023-07-30T13:32:14;23.50;99.90
35962;DHT22;22044;48.298;10.008;2023-07-30T13:35:00;23.70;99.90
35962;DHT22;22044;48.298;10.008;2023-07-30T13:37:47;23.80;99.90
35962;DHT22;22044;48.298;10.008;2023-07-30T13:40:33;23.70;99.90
35962;DHT22;22044;48.298;10.008;2023-07-30T13:43:18;23.80;99.90
35962;DHT22;22044;48.298;10.008;2023-07-30T13:46:04;23.90;99.90
35962;DHT22;22044;48.298;10.008;2023-07-30T13:48:50;24.00;99.90
35962;DHT22;22044;48.298;10.008;2023-07-30T13:51:35;24.10;99.90
35962;DHT22;22044;48.298;10.008;2023-07-30T13:54:22;24.10;99.90
35962;DHT22;22044;48.298;10.008;2023-07-30T13:57:08;24.20;99.90
35962;DHT22;22044;48.298;10.008;2023-07-30T13:59:53;24.30;99.90
35962;DHT22;22044;48.298;10.008;2023-07-30T14:02:39;24.40;99.90
35962;DHT22;22044;48.298;10.008;2023-07-30T14:05:24;24.40;99.90
35962;DHT22;22044;48.298;10.008;2023-07-30T14:08:11;24.50;99.90
35962;DHT22;22044;48.298;10.008;2023-07-30T14:10:58;24.50;99.90
35962;DHT22;22044;48.298;10.008;2023-07-30T14:13:44;24.40;99.90
35962;DHT22;22044;48.298;10.008;2023-07-30T14:16:30;24.40;99.90
35962;DHT22;22044;48.298;10.008;2023-07-30T14:19:16;24.50;99.90
35962;DHT22;22044;48.298;10.008;2023-07-30T14:22:01;24.70;99.90
35962;DHT22;22044;48.298;10.008;2023-07-30T14:24:47;24.70;99.90
35962;DHT22;22044;48.298;10.008;2023-07-30T14:27:34;24.30;99.90
35962;DHT22;22044;48.298;10.008;2023-07-30T14:30:20;24.10;99.90
35962;DHT22;22044;48.298;10.008;2023-07-30T14:33:06;23.90;99.90
35962;DHT22;22044;48.298;10.008;2023-07-30T14:35:52;23.80;99.90
35962;DHT22;22044;48.298;10.008;2023-07-30T14:38:38;23.90;99.90
35962;DHT22;22044;48.298;10.008;2023-07-30T14:41:23;23.90;99.90
35962;DHT22;22044;48.298;10.008;2023-07-30T14:44:10;23.80;99.90
35962;DHT22;22044;48.298;10.008;2023-07-30T14:46:56;23.70;99.90
35962;DHT22;22044;48.298;10.008;2023-07-30T14:49:42;23.90;99.90
35962;DHT22;22044;48.298;10.008;2023-07-30T14:52:28;23.90;99.90
35962;DHT22;22044;48.298;10.008;2023-07-30T14:55:14;23.90;99.90
35962;DHT22;22044;48.298;10.008;2023-07-30T14:57:59;23.90;99.90
35962;DHT22;22044;48.298;10.008;2023-07-30T15:00:47;24.00;99.90
35962;DHT22;22044;48.298;10.008;2023-07-30T15:03:32;23.80;99.90
35962;DHT22;22044;48.298;10.008;2023-07-30T15:06:18;23.60;99.90
35962;DHT22;22044;48.298;10.008;2023-07-30T15:09:05;23.60;99.90
35962;DHT22;22044;48.298;10.008;2023-07-30T15:11:50;23.40;99.90
35962;DHT22;22044;48.298;10.008;2023-07-30T15:14:36;23.50;99.90
35962;DHT22;22044;48.298;10.008;2023-07-30T15:17:23;23.30;99.90
35962;DHT22;22044;48.298;10.008;2023-07-30T15:20:10;23.20;99.90
35962;DHT22;22044;48.298;10.008;2023-07-30T15:22:55;23.20;99.90
35962;DHT22;22044;48.298;10.008;2023-07-30T15:25:41;23.20;99.90
35962;DHT22;22044;48.298;10.008;2023-07-30T15:28:27;23.10;99.90
35962;DHT22;22044;48.298;10.008;2023-07-30T15:31:12;23.20;99.90
35962;DHT22;22044;48.298;10.008;2023-07-30T15:33:59;23.20;99.90
35962;DHT22;22044;48.298;10.008;2023-07-30T15:36:47;23.10;99.90
35962;DHT22;22044;48.298;10.008;2023-07-30T15:39:33;23.00;99.90
35962;DHT22;22044;48.298;10.008;2023-07-30T15:42:20;22.80;99.90
35962;DHT22;22044;48.298;10.008;2023-07-30T15:45:06;22.50;99.90
35962;DHT22;22044;48.298;10.008;2023-07-30T15:47:52;22.50;99.90
35962;DHT22;22044;48.298;10.008;2023-07-30T15:50:42;22.50;99.90
35962;DHT22;22044;48.298;10.008;2023-07-30T15:53:28;22.70;99.90
35962;DHT22;22044;48.298;10.008;2023-07-30T15:56:14;22.90;99.90
35962;DHT22;22044;48.298;10.008;2023-07-30T15:58:59;23.20;99.90
35962;DHT22;22044;48.298;10.008;2023-07-30T16:01:45;23.10;99.90
35962;DHT22;22044;48.298;10.008;2023-07-30T16:04:32;23.10;99.90
35962;DHT22;22044;48.298;10.008;2023-07-30T16:07:19;23.10;99.90
35962;DHT22;22044;48.298;10.008;2023-07-30T16:10:04;23.20;99.90
35962;DHT22;22044;48.298;10.008;2023-07-30T16:12:51;22.90;99.90
35962;DHT22;22044;48.298;10.008;2023-07-30T16:15:37;22.70;99.90
35962;DHT22;22044;48.298;10.008;2023-07-30T16:18:22;22.90;99.90
35962;DHT22;22044;48.298;10.008;2023-07-30T16:21:08;22.70;99.90
35962;DHT22;22044;48.298;10.008;2023-07-30T16:23:55;22.80;99.90
35962;DHT22;22044;48.298;10.008;2023-07-30T16:26:41;22.80;99.90
35962;DHT22;22044;48.298;10.008;2023-07-30T16:29:26;22.90;99.90
35962;DHT22;22044;48.298;10.008;2023-07-30T16:32:12;23.10;99.90
35962;DHT22;22044;48.298;10.008;2023-07-30T16:34:58;23.10;99.90
35962;DHT22;22044;48.298;10.008;2023-07-30T16:37:44;23.00;99.90
35962;DHT22;22044;48.298;10.008;2023-07-30T16:40:31;22.90;99.90
35962;DHT22;22044;48.298;10.008;2023-07-30T16:43:17;22.90;99.90
35962;DHT22;22044;48.298;10.008;2023-07-30T16:46:04;23.00;99.90
35962;DHT22;22044;48.298;10.008;2023-07-30T16:48:50;22.90;99.90
35962;DHT22;22044;48.298;10.008;2023-07-30T16:51:36;23.00;99.90
35962;DHT22;22044;48.298;10.008;2023-07-30T16:54:21;22.80;99.90
35962;DHT22;22044;48.298;10.008;2023-07-30T16:57:08;22.80;99.90
35962;DHT22;22044;48.298;10.008;2023-07-30T16:59:54;22.50;99.90
35962;DHT22;22044;48.298;10.008;2023-07-30T17:02:39;22.40;99.90
35962;DHT22;22044;48.298;10.008;2023-07-30T17:05:25;22.40;99.90
35962;DHT22;22044;48.298;10.008;2023-07-30T17:08:11;22.40;99.90
35962;DHT22;22044;48.298;10.008;2023-07-30T17:11:02;22.20;99.90
35962;DHT22;22044;48.298;10.008;2023-07-30T17:13:52;22.10;99.90
35962;DHT22;22044;48.298;10.008;2023-07-30T17:16:40;22.00;99.90